Maersk Essen — V7UQ8 — position and weather

sailwx.info

Track history (hours):
 
Tides and Currents Weather Stations Pressure Air Temp Water Temp Dewpoint Dewpoint Depression Visibility Wind Speed Wind Dir Waves Ship Positions

Maersk Essen

Last reported at 2015-Jul-31 23:17 UTC. Time now 2015-Aug-01 16:17 UTC.
Position N 34°54' E 139°22'.

Length 367 m; draft 12 m.

Type: Ship (hazmat cat A). MMSI: 538004007.

Date/timePositionNaut miles runAvg speedWind from/ knotsBaromVisibWave heightAir tempDewpointWater temp
2015-Jul-31 23:17N 34°54' E 139°22'1215.9
2015-Jul-31 22:33N 35°01' E 139°34'1515.0
2015-Jul-31 21:33N 35°12' E 139°46'1111.4
2015-Jul-31 20:33N 35°23' E 139°41'1 1.3
2015-Jul-31 19:31N 35°24' E 139°41'0 0.0
2015-Jul-31 18:31N 35°24' E 139°41'0 0.0
2015-Jul-31 17:31N 35°24' E 139°41'0 0.0
2015-Jul-31 16:31N 35°24' E 139°41'0 0.0
2015-Jul-31 15:31N 35°24' E 139°41'0 0.0
2015-Jul-31 14:31N 35°24' E 139°41'0 0.0
2015-Jul-31 13:31N 35°24' E 139°41'0 0.0
2015-Jul-31 12:28N 35°24' E 139°41'0 0.0
2015-Jul-31 11:31N 35°24' E 139°41'0 0.0
2015-Jul-31 10:31N 35°24' E 139°41'0 0.0
2015-Jul-31 09:31N 35°24' E 139°41'0 0.0
2015-Jul-31 08:31N 35°24' E 139°41'0 0.0
2015-Jul-31 07:31N 35°24' E 139°41'0 0.0
2015-Jul-31 06:31N 35°24' E 139°41'0 0.0
2015-Jul-31 05:31N 35°24' E 139°41'1 0.6
2015-Jul-31 04:34N 35°24' E 139°41'9 9.4
2015-Jul-31 03:34N 35°16' E 139°47'1010.0
2015-Jul-31 02:33N 35°06' E 139°44'1313.1
2015-Jul-31 01:33N 34°58' E 139°32'2019.9
2015-Jul-31 00:32N 34°44' E 139°13'218 5.6
2015-Jul-29 09:25N 33°53' E 134°58'1315.3
2015-Jul-29 08:33N 34°06' E 134°56'1414.4
2015-Jul-29 07:33N 34°20' E 134°59'1615.8
2015-Jul-29 06:33N 34°32' E 135°11'9 9.1
2015-Jul-29 05:33N 34°41' E 135°16'0 0.1
2015-Jul-29 04:30N 34°41' E 135°16'0 0.0
2015-Jul-29 03:30N 34°41' E 135°16'0 0.0
2015-Jul-29 02:30N 34°41' E 135°16'0 0.0
2015-Jul-29 01:30N 34°41' E 135°16'0 0.0
2015-Jul-29 00:30N 34°41' E 135°16'0 0.0
2015-Jul-28 23:30N 34°41' E 135°16'0 0.0
2015-Jul-28 22:30N 34°41' E 135°16'0 0.0
2015-Jul-28 21:18N 34°41' E 135°16'0 0.0
2015-Jul-28 20:24N 34°41' E 135°16'0 0.0
2015-Jul-28 19:30N 34°41' E 135°16'0 0.0
2015-Jul-28 18:30N 34°41' E 135°16'0 0.0
2015-Jul-28 17:30N 34°41' E 135°16'0 0.0
2015-Jul-28 16:30N 34°41' E 135°16'0 0.0
2015-Jul-28 15:30N 34°41' E 135°16'0 0.0
2015-Jul-28 14:30N 34°41' E 135°16'0 0.0
2015-Jul-28 13:30N 34°41' E 135°16'0 0.0
2015-Jul-28 12:30N 34°41' E 135°16'0 0.0
2015-Jul-28 11:30N 34°41' E 135°16'0 0.0
2015-Jul-28 10:30N 34°41' E 135°16'0 0.0
2015-Jul-28 09:30N 34°41' E 135°16'0 0.0
2015-Jul-28 08:30N 34°41' E 135°16'0 0.0
2015-Jul-28 07:30N 34°41' E 135°16'0 0.0
2015-Jul-28 06:24N 34°41' E 135°16'0 0.0
2015-Jul-28 05:30N 34°41' E 135°16'0 0.0
2015-Jul-28 04:30N 34°41' E 135°16'0 0.0
2015-Jul-28 03:30N 34°41' E 135°16'0 0.0
2015-Jul-28 02:24N 34°41' E 135°16'0 0.0
2015-Jul-28 01:30N 34°41' E 135°16'0 0.0
2015-Jul-28 00:30N 34°41' E 135°16'0 0.0
2015-Jul-27 23:30N 34°41' E 135°16'1 1.0
2015-Jul-27 22:33N 34°40' E 135°15'7 7.5
2015-Jul-27 21:33N 34°33' E 135°13'1211.9
2015-Jul-27 20:33N 34°24' E 135°04'1212.2
2015-Jul-27 19:34N 34°12' E 134°60'1414.2
2015-Jul-27 18:33N 33°58' E 134°58'  
2015-Jul-24 03:27N 22°16' E 114°30'1110.3
2015-Jul-24 02:24N 22°07' E 114°22'18 9.8
2015-Jul-24 00:34N 22°17' E 114°06'3 2.9
2015-Jul-23 23:32N 22°20' E 114°07'0 0.0
2015-Jul-23 22:32N 22°20' E 114°07'0 0.0
2015-Jul-23 21:29N 22°20' E 114°07'0 0.0
2015-Jul-23 20:23N 22°20' E 114°07'0 0.0
2015-Jul-23 19:17N 22°20' E 114°07'0 0.0
2015-Jul-23 18:32N 22°20' E 114°07'0 0.0
2015-Jul-23 17:29N 22°20' E 114°07'0 0.0
2015-Jul-23 15:32N 22°20' E 114°07'0 0.0
2015-Jul-23 14:26N 22°20' E 114°07'0 0.0
2015-Jul-23 13:32N 22°20' E 114°07'0 0.0
2015-Jul-23 12:29N 22°20' E 114°07'0 0.0
2015-Jul-23 11:32N 22°20' E 114°07'0 0.0
2015-Jul-23 10:23N 22°20' E 114°07'1 1.0
2015-Jul-23 09:33N 22°19' E 114°07'6 5.0
2015-Jul-23 08:20N 22°14' E 114°09'1 1.6
2015-Jul-23 07:33N 22°13' E 114°10'8 7.5
2015-Jul-23 06:31N 22°09' E 114°17'13 6.5
2015-Jul-23 04:33N 21°58' E 114°25'  
Track history (hours):
 
Tides and Currents Weather Stations Pressure Air Temp Water Temp Dewpoint Dewpoint Depression Visibility Wind Speed Wind Dir Waves Ship Positions

Maersk Essen

Last reported at 2015-Jul-31 23:17 UTC. Time now 2015-Aug-01 16:17 UTC.
Position N 34°54' E 139°22'.

Length 367 m; draft 12 m.

Type: Ship (hazmat cat A). MMSI: 538004007.

Date/timePositionNaut miles runAvg speedWind from/ knotsBaromVisibWave heightAir tempDewpointWater temp
2015-Jul-31 23:17N 34°54' E 139°22'1215.9
2015-Jul-31 22:33N 35°01' E 139°34'1515.0
2015-Jul-31 21:33N 35°12' E 139°46'1111.4
2015-Jul-31 20:33N 35°23' E 139°41'1 1.3
2015-Jul-31 19:31N 35°24' E 139°41'0 0.0
2015-Jul-31 18:31N 35°24' E 139°41'0 0.0
2015-Jul-31 17:31N 35°24' E 139°41'0 0.0
2015-Jul-31 16:31N 35°24' E 139°41'0 0.0
2015-Jul-31 15:31N 35°24' E 139°41'0 0.0
2015-Jul-31 14:31N 35°24' E 139°41'0 0.0
2015-Jul-31 13:31N 35°24' E 139°41'0 0.0
2015-Jul-31 12:28N 35°24' E 139°41'0 0.0
2015-Jul-31 11:31N 35°24' E 139°41'0 0.0
2015-Jul-31 10:31N 35°24' E 139°41'0 0.0
2015-Jul-31 09:31N 35°24' E 139°41'0 0.0
2015-Jul-31 08:31N 35°24' E 139°41'0 0.0
2015-Jul-31 07:31N 35°24' E 139°41'0 0.0
2015-Jul-31 06:31N 35°24' E 139°41'0 0.0
2015-Jul-31 05:31N 35°24' E 139°41'1 0.6
2015-Jul-31 04:34N 35°24' E 139°41'9 9.4
2015-Jul-31 03:34N 35°16' E 139°47'1010.0
2015-Jul-31 02:33N 35°06' E 139°44'1313.1
2015-Jul-31 01:33N 34°58' E 139°32'2019.9
2015-Jul-31 00:32N 34°44' E 139°13'218 5.6
2015-Jul-29 09:25N 33°53' E 134°58'1315.3
2015-Jul-29 08:33N 34°06' E 134°56'1414.4
2015-Jul-29 07:33N 34°20' E 134°59'1615.8
2015-Jul-29 06:33N 34°32' E 135°11'9 9.1
2015-Jul-29 05:33N 34°41' E 135°16'0 0.1
2015-Jul-29 04:30N 34°41' E 135°16'0 0.0
2015-Jul-29 03:30N 34°41' E 135°16'0 0.0
2015-Jul-29 02:30N 34°41' E 135°16'0 0.0
2015-Jul-29 01:30N 34°41' E 135°16'0 0.0
2015-Jul-29 00:30N 34°41' E 135°16'0 0.0
2015-Jul-28 23:30N 34°41' E 135°16'0 0.0
2015-Jul-28 22:30N 34°41' E 135°16'0 0.0
2015-Jul-28 21:18N 34°41' E 135°16'0 0.0
2015-Jul-28 20:24N 34°41' E 135°16'0 0.0
2015-Jul-28 19:30N 34°41' E 135°16'0 0.0
2015-Jul-28 18:30N 34°41' E 135°16'0 0.0
2015-Jul-28 17:30N 34°41' E 135°16'0 0.0
2015-Jul-28 16:30N 34°41' E 135°16'0 0.0
2015-Jul-28 15:30N 34°41' E 135°16'0 0.0
2015-Jul-28 14:30N 34°41' E 135°16'0 0.0
2015-Jul-28 13:30N 34°41' E 135°16'0 0.0
2015-Jul-28 12:30N 34°41' E 135°16'0 0.0
2015-Jul-28 11:30N 34°41' E 135°16'0 0.0
2015-Jul-28 10:30N 34°41' E 135°16'0 0.0
2015-Jul-28 09:30N 34°41' E 135°16'0 0.0
2015-Jul-28 08:30N 34°41' E 135°16'0 0.0
2015-Jul-28 07:30N 34°41' E 135°16'0 0.0
2015-Jul-28 06:24N 34°41' E 135°16'0 0.0
2015-Jul-28 05:30N 34°41' E 135°16'0 0.0
2015-Jul-28 04:30N 34°41' E 135°16'0 0.0
2015-Jul-28 03:30N 34°41' E 135°16'0 0.0
2015-Jul-28 02:24N 34°41' E 135°16'0 0.0
2015-Jul-28 01:30N 34°41' E 135°16'0 0.0
2015-Jul-28 00:30N 34°41' E 135°16'0 0.0
2015-Jul-27 23:30N 34°41' E 135°16'1 1.0
2015-Jul-27 22:33N 34°40' E 135°15'7 7.5
2015-Jul-27 21:33N 34°33' E 135°13'1211.9
2015-Jul-27 20:33N 34°24' E 135°04'1212.2
2015-Jul-27 19:34N 34°12' E 134°60'1414.2
2015-Jul-27 18:33N 33°58' E 134°58'  
2015-Jul-24 03:27N 22°16' E 114°30'1110.3
2015-Jul-24 02:24N 22°07' E 114°22'18 9.8
2015-Jul-24 00:34N 22°17' E 114°06'3 2.9
2015-Jul-23 23:32N 22°20' E 114°07'0 0.0
2015-Jul-23 22:32N 22°20' E 114°07'0 0.0
2015-Jul-23 21:29N 22°20' E 114°07'0 0.0
2015-Jul-23 20:23N 22°20' E 114°07'0 0.0
2015-Jul-23 19:17N 22°20' E 114°07'0 0.0
2015-Jul-23 18:32N 22°20' E 114°07'0 0.0
2015-Jul-23 17:29N 22°20' E 114°07'0 0.0
2015-Jul-23 15:32N 22°20' E 114°07'0 0.0
2015-Jul-23 14:26N 22°20' E 114°07'0 0.0
2015-Jul-23 13:32N 22°20' E 114°07'0 0.0
2015-Jul-23 12:29N 22°20' E 114°07'0 0.0
2015-Jul-23 11:32N 22°20' E 114°07'0 0.0
2015-Jul-23 10:23N 22°20' E 114°07'1 1.0
2015-Jul-23 09:33N 22°19' E 114°07'6 5.0
2015-Jul-23 08:20N 22°14' E 114°09'1 1.6
2015-Jul-23 07:33N 22°13' E 114°10'8 7.5
2015-Jul-23 06:31N 22°09' E 114°17'13 6.5
2015-Jul-23 04:33N 21°58' E 114°25'  

Dump ship's entire track history